Time;durP1;ratioP1;P1;durP2;ratioP2;P2;SDS_P1;SDS_P2;PMS_P1;PMS_P2;Temp;Humidity;BMP_temperature;BMP_pressure;BME280_temperature;BME280_humidity;BME280_pressure;Samples;Min_cycle;Max_cycle;Signal;HPM_P1;HPM_P2
2022/10/13 00:00:14;;;;;;;;;;;;;;;;;;5097139;28;19924;-73
2022/10/13 00:02:40;;;;;;;;;;;;;;;;;;5101963;28;19997;-74
2022/10/13 00:05:07;;;;;;;;;;;;;;;;;;5079052;28;19959;-74
2022/10/13 00:07:33;;;;;;;;;;;;;;;;;;5101569;28;19924;-74
2022/10/13 00:09:59;;;;;;;;;;;;;;;;;;5103414;28;20355;-74
2022/10/13 00:12:25;;;;;;;;;;;;;;;;;;5102171;28;19969;-73
2022/10/13 00:14:51;;;;;;;;;;;;;;;;;;5082396;28;19944;-73
2022/10/13 00:17:17;;;;;;;;;;;;;;;;;;5104412;28;19959;-73
2022/10/13 00:19:44;;;;;;;;;;;;;;;;;;5090293;28;19962;-73
2022/10/13 00:22:10;;;;;;;;;;;;;;;;;;5101354;28;20684;-73
2022/10/13 00:24:36;;;;;;;;;;;;;;;;;;5100236;28;19978;-73
2022/10/13 00:27:02;;;;;;;;;;;;;;;;;;5103900;28;19974;-73
2022/10/13 00:29:28;;;;;;;;;;;;;;;;;;5093389;28;19954;-75
2022/10/13 00:31:54;;;;;;;;;;;;;;;;;;5104553;28;19951;-73
2022/10/13 00:34:21;;;;;;;;;;;;;;;;;;5105957;28;19947;-73
2022/10/13 00:36:47;;;;;;;;;;;;;;;;;;5090864;28;20427;-73
2022/10/13 00:39:13;;;;;;;;;;;;;;;;;;5100692;28;19952;-73
2022/10/13 00:41:39;;;;;;;;;;;;;;;;;;5102712;28;20375;-74
2022/10/13 00:44:06;;;;;;;;;;;;;;;;;;5095662;28;19916;-73
2022/10/13 00:46:32;;;;;;;;;;;;;;;;;;5102861;28;19959;-74
2022/10/13 00:48:58;;;;;;;;;;;;;;;;;;5108202;28;20362;-74
2022/10/13 00:51:24;;;;;;;;;;;;;;;;;;5098193;28;19916;-77
2022/10/13 00:53:50;;;;;;;;;;;;;;;;;;5097940;28;19952;-72
2022/10/13 00:56:17;;;;;;;;;;;;;;;;;;5097752;28;20385;-73
2022/10/13 00:58:43;;;;;;;;;;;;;;;;;;5106182;28;19967;-74
2022/10/13 01:01:09;;;;;;;;;;;;;;;;;;5089438;28;19943;-73
2022/10/13 01:03:35;;;;;;;;;;;;;;;;;;5102154;28;19965;-74
2022/10/13 01:06:02;;;;;;;;;;;;;;;;;;5108507;28;19956;-73
2022/10/13 01:08:28;;;;;;;;;;;;;;;;;;5087116;28;19961;-74
2022/10/13 01:10:54;;;;;;;;;;;;;;;;;;5100174;28;19956;-74
2022/10/13 01:13:20;;;;;;;;;;;;;;;;;;5108551;28;19959;-74
2022/10/13 01:15:46;;;;;;;;;;;;;;;;;;5101999;28;19959;-74
2022/10/13 01:18:13;;;;;;;;;;;;;;;;;;5103380;28;19988;-74
2022/10/13 01:20:39;;;;;;;;;;;;;;;;;;5106703;28;19955;-74
2022/10/13 01:23:05;;;;;;;;;;;;;;;;;;5105181;28;19963;-74
2022/10/13 01:25:31;;;;;;;;;;;;;;;;;;5104820;28;20351;-74
2022/10/13 01:27:57;;;;;;;;;;;;;;;;;;5104731;28;19971;-74
2022/10/13 01:30:24;;;;;;;;;;;;;;;;;;5105089;28;20511;-74
2022/10/13 01:32:50;;;;;;;;;;;;;;;;;;5092256;28;19954;-73
2022/10/13 01:35:16;;;;;;;;;;;;;;;;;;5104417;28;19947;-73
2022/10/13 01:37:42;;;;;;;;;;;;;;;;;;5102472;28;19959;-73
2022/10/13 01:40:08;;;;;;;;;;;;;;;;;;5107262;28;19919;-72
2022/10/13 01:42:35;;;;;;;;;;;;;;;;;;5095174;28;19956;-75
2022/10/13 01:45:01;;;;;;;;;;;;;;;;;;5087975;28;19970;-72
2022/10/13 01:47:27;;;;;;;;;;;;;;;;;;5096478;28;19963;-73
2022/10/13 01:49:54;;;;;;;;;;;;;;;;;;5106919;28;19951;-73
2022/10/13 01:52:20;;;;;;;;;;;;;;;;;;5084532;28;19919;-74
2022/10/13 01:54:46;;;;;;;;;;;;;;;;;;5106117;28;19959;-74
2022/10/13 01:57:12;;;;;;;;;;;;;;;;;;5097240;28;20355;-73
2022/10/13 01:59:38;;;;;;;;;;;;;;;;;;5102622;28;19985;-74
2022/10/13 02:02:04;;;;;;;;;;;;;;;;;;5106266;28;19955;-72
2022/10/13 02:04:31;;;;;;;;;;;;;;;;;;5107344;28;20026;-73
2022/10/13 02:06:57;;;;;;;;;;;;;;;;;;5102886;28;19959;-72
2022/10/13 02:09:23;;;;;;;;;;;;;;;;;;5107449;28;19943;-73
2022/10/13 02:11:49;;;;;;;;;;;;;;;;;;5084779;28;20456;-74
2022/10/13 02:14:15;;;;;;;;;;;;;;;;;;5094232;28;19944;-73
2022/10/13 02:16:42;;;;;;;;;;;;;;;;;;5086092;28;19955;-74
2022/10/13 02:19:08;;;;;;;;;;;;;;;;;;5108230;28;19967;-74
2022/10/13 02:21:34;;;;;;;;;;;;;;;;;;5094924;28;19958;-74
2022/10/13 02:24:00;;;;;;;;;;;;;;;;;;5104650;28;19916;-74
2022/10/13 02:26:27;;;;;;;;;;;;;;;;;;5100863;28;19955;-74
2022/10/13 02:28:53;;;;;;;;;;;;;;;;;;5097646;28;20080;-74
2022/10/13 02:31:20;;;;;;;;;;;;;;;;;;5100090;28;19970;-73
2022/10/13 02:33:46;;;;;;;;;;;;;;;;;;5090532;28;20331;-73
2022/10/13 02:36:12;;;;;;;;;;;;;;;;;;5104598;28;19943;-73
2022/10/13 02:38:38;;;;;;;;;;;;;;;;;;5086317;28;19955;-73
2022/10/13 02:41:04;;;;;;;;;;;;;;;;;;5100968;28;19958;-73
2022/10/13 02:43:32;;;;;;;;;;;;;;;;;;5097896;28;20375;-74
2022/10/13 02:45:58;;;;;;;;;;;;;;;;;;5085562;28;19989;-73
2022/10/13 02:48:25;;;;;;;;;;;;;;;;;;5107453;28;19936;-73
2022/10/13 02:50:51;;;;;;;;;;;;;;;;;;5101145;28;19970;-74
2022/10/13 02:53:17;;;;;;;;;;;;;;;;;;5092469;28;20346;-73
2022/10/13 02:55:43;;;;;;;;;;;;;;;;;;5098232;28;19958;-73
2022/10/13 02:58:09;;;;;;;;;;;;;;;;;;5104534;28;19971;-73
2022/10/13 03:00:38;;;;;;;;;;;;;;;;;;5100471;28;19968;-74
2022/10/13 03:03:04;;;;;;;;;;;;;;;;;;5106017;28;20378;-73
2022/10/13 03:05:30;;;;;;;;;;;;;;;;;;5106644;28;20010;-75
2022/10/13 03:07:56;;;;;;;;;;;;;;;;;;5103662;28;19970;-74
2022/10/13 03:10:22;;;;;;;;;;;;;;;;;;5095966;28;20327;-73
2022/10/13 03:12:49;;;;;;;;;;;;;;;;;;5103070;28;19963;-74
2022/10/13 03:15:16;;;;;;;;;;;;;;;;;;5104573;28;19916;-74
2022/10/13 03:17:42;;;;;;;;;;;;;;;;;;5082870;28;20363;-74
2022/10/13 03:20:08;;;;;;;;;;;;;;;;;;5100418;28;19955;-73
2022/10/13 03:22:34;;;;;;;;;;;;;;;;;;5083032;28;19954;-73
2022/10/13 03:25:00;;;;;;;;;;;;;;;;;;5102496;28;19947;-73
2022/10/13 03:27:27;;;;;;;;;;;;;;;;;;5107474;28;19924;-73
2022/10/13 03:29:53;;;;;;;;;;;;;;;;;;5099590;28;19947;-73
2022/10/13 03:32:19;;;;;;;;;;;;;;;;;;5095528;28;19952;-73
2022/10/13 03:34:45;;;;;;;;;;;;;;;;;;5099706;28;19923;-73
2022/10/13 03:37:11;;;;;;;;;;;;;;;;;;5099404;28;19959;-72
2022/10/13 03:39:37;;;;;;;;;;;;;;;;;;5084301;28;20324;-73
2022/10/13 03:42:04;;;;;;;;;;;;;;;;;;5096971;28;19940;-74
2022/10/13 03:44:30;;;;;;;;;;;;;;;;;;5105417;28;19962;-73
2022/10/13 03:46:56;;;;;;;;;;;;;;;;;;5092925;28;20383;-74
2022/10/13 03:49:22;;;;;;;;;;;;;;;;;;5101541;28;19981;-76
2022/10/13 03:51:49;;;;;;;;;;;;;;;;;;5098679;28;20716;-75
2022/10/13 03:54:15;;;;;;;;;;;;;;;;;;5098893;28;19959;-75
2022/10/13 03:56:41;;;;;;;;;;;;;;;;;;5074475;28;20013;-76
2022/10/13 03:59:08;;;;;;;;;;;;;;;;;;5075202;28;19975;-76
2022/10/13 04:01:34;;;;;;;;;;;;;;;;;;5092017;28;19960;-76
2022/10/13 04:04:03;;;;;;;;;;;;;;;;;;5099340;28;19969;-75
2022/10/13 04:06:30;;;;;;;;;;;;;;;;;;5078078;28;19924;-74
2022/10/13 04:08:56;;;;;;;;;;;;;;;;;;5082112;28;22392;-75
2022/10/13 04:11:22;;;;;;;;;;;;;;;;;;5093249;28;20398;-74
2022/10/13 04:13:48;;;;;;;;;;;;;;;;;;5099874;28;19959;-75
2022/10/13 04:16:15;;;;;;;;;;;;;;;;;;5092665;28;19919;-75
2022/10/13 04:18:41;;;;;;;;;;;;;;;;;;5103107;28;19928;-75
2022/10/13 04:21:07;;;;;;;;;;;;;;;;;;5081436;28;20022;-75
2022/10/13 04:23:33;;;;;;;;;;;;;;;;;;5103399;28;19926;-75
2022/10/13 04:26:00;;;;;;;;;;;;;;;;;;5100771;28;19943;-75
2022/10/13 04:28:26;;;;;;;;;;;;;;;;;;5100982;28;20676;-75
2022/10/13 04:30:52;;;;;;;;;;;;;;;;;;5100649;28;19975;-74
2022/10/13 04:33:18;;;;;;;;;;;;;;;;;;5098816;28;19959;-75
2022/10/13 04:35:44;;;;;;;;;;;;;;;;;;5089817;28;19974;-75
2022/10/13 04:38:11;;;;;;;;;;;;;;;;;;5095223;28;19967;-76
2022/10/13 04:40:37;;;;;;;;;;;;;;;;;;5094035;28;20316;-76
2022/10/13 04:43:03;;;;;;;;;;;;;;;;;;5102942;28;19966;-75
2022/10/13 04:45:29;;;;;;;;;;;;;;;;;;5103177;28;19962;-75
2022/10/13 04:47:56;;;;;;;;;;;;;;;;;;5105727;28;19967;-75
2022/10/13 04:50:22;;;;;;;;;;;;;;;;;;5083972;28;20375;-75
2022/10/13 04:52:48;;;;;;;;;;;;;;;;;;5104178;28;19950;-75
2022/10/13 04:55:14;;;;;;;;;;;;;;;;;;5107795;28;20301;-75
2022/10/13 04:57:40;;;;;;;;;;;;;;;;;;5097487;28;19962;-75
2022/10/13 05:00:07;;;;;;;;;;;;;;;;;;5104582;28;19954;-75
2022/10/13 05:02:33;;;;;;;;;;;;;;;;;;5079308;28;19947;-75
2022/10/13 05:04:59;;;;;;;;;;;;;;;;;;5101071;28;19947;-75
2022/10/13 05:07:25;;;;;;;;;;;;;;;;;;5097935;28;19988;-74
2022/10/13 05:09:51;;;;;;;;;;;;;;;;;;5104055;28;20040;-75
2022/10/13 05:12:17;;;;;;;;;;;;;;;;;;5100211;28;20351;-76
2022/10/13 05:14:44;;;;;;;;;;;;;;;;;;5106408;28;19959;-75
2022/10/13 05:17:10;;;;;;;;;;;;;;;;;;5104368;28;19966;-76
2022/10/13 05:19:36;;;;;;;;;;;;;;;;;;5105410;28;19947;-75
2022/10/13 05:22:02;;;;;;;;;;;;;;;;;;5095409;28;19951;-75
2022/10/13 05:24:38;;;;;;;;;;;;;;;;;;5101769;28;19962;-77
2022/10/13 05:27:04;;;;;;;;;;;;;;;;;;5100588;28;22307;-75
2022/10/13 05:29:31;;;;;;;;;;;;;;;;;;5104396;28;20069;-75
2022/10/13 05:31:57;;;;;;;;;;;;;;;;;;5099722;28;21745;-75
2022/10/13 05:34:23;;;;;;;;;;;;;;;;;;5109166;28;19963;-75
2022/10/13 05:36:49;;;;;;;;;;;;;;;;;;5103330;28;19947;-75
2022/10/13 05:39:15;;;;;;;;;;;;;;;;;;5105053;28;19966;-75
2022/10/13 05:41:42;;;;;;;;;;;;;;;;;;5100638;28;20883;-75
2022/10/13 05:44:08;;;;;;;;;;;;;;;;;;5086274;28;21422;-75
2022/10/13 05:46:34;;;;;;;;;;;;;;;;;;5088788;28;19919;-75
2022/10/13 05:49:00;;;;;;;;;;;;;;;;;;5102381;28;19951;-75
2022/10/13 05:51:26;;;;;;;;;;;;;;;;;;5088296;28;19966;-75
2022/10/13 05:53:53;;;;;;;;;;;;;;;;;;5082291;28;19977;-75
2022/10/13 05:56:19;;;;;;;;;;;;;;;;;;5093886;28;19977;-75
2022/10/13 05:58:45;;;;;;;;;;;;;;;;;;5098739;28;20408;-74
2022/10/13 06:01:11;;;;;;;;;;;;;;;;;;5104010;28;19954;-74
2022/10/13 06:03:37;;;;;;;;;;;;;;;;;;5099398;28;19955;-75
2022/10/13 06:06:04;;;;;;;;;;;;;;;;;;5098144;28;19938;-75
2022/10/13 06:08:30;;;;;;;;;;;;;;;;;;5093832;28;20470;-74
2022/10/13 06:10:56;;;;;;;;;;;;;;;;;;5096989;28;19959;-75
2022/10/13 06:13:22;;;;;;;;;;;;;;;;;;5088464;28;20733;-75
2022/10/13 06:15:48;;;;;;;;;;;;;;;;;;5095475;28;19951;-75
2022/10/13 06:18:15;;;;;;;;;;;;;;;;;;5100686;28;19959;-75
2022/10/13 06:20:41;;;;;;;;;;;;;;;;;;5106111;28;20052;-75
2022/10/13 06:23:07;;;;;;;;;;;;;;;;;;5105606;28;19955;-75
2022/10/13 06:25:33;;;;;;;;;;;;;;;;;;5105278;28;20308;-75
2022/10/13 06:27:59;;;;;;;;;;;;;;;;;;5105045;28;19994;-75
2022/10/13 06:30:25;;;;;;;;;;;;;;;;;;5088272;28;19927;-75
2022/10/13 06:32:52;;;;;;;;;;;;;;;;;;5101726;28;19963;-75
2022/10/13 06:35:18;;;;;;;;;;;;;;;;;;5080821;28;20421;-74
2022/10/13 06:37:47;;;;;;;;;;;;;;;;;;5104079;28;19999;-75
2022/10/13 06:40:13;;;;;;;;;;;;;;;;;;5102553;28;19963;-75
2022/10/13 06:42:39;;;;;;;;;;;;;;;;;;5091456;28;19952;-75
2022/10/13 06:45:06;;;;;;;;;;;;;;;;;;5102866;28;19959;-75
2022/10/13 06:47:32;;;;;;;;;;;;;;;;;;5075020;28;19963;-75
2022/10/13 06:49:58;;;;;;;;;;;;;;;;;;5092011;28;21359;-75
2022/10/13 06:52:24;;;;;;;;;;;;;;;;;;5095331;28;19970;-75
2022/10/13 06:54:50;;;;;;;;;;;;;;;;;;5100441;28;20298;-75
2022/10/13 06:57:17;;;;;;;;;;;;;;;;;;5104010;28;19952;-75
2022/10/13 06:59:43;;;;;;;;;;;;;;;;;;5093356;28;19964;-75
2022/10/13 07:02:09;;;;;;;;;;;;;;;;;;5098602;28;19916;-75
2022/10/13 07:04:35;;;;;;;;;;;;;;;;;;5094849;28;19916;-76
2022/10/13 07:07:01;;;;;;;;;;;;;;;;;;5104637;28;19959;-75
2022/10/13 07:09:28;;;;;;;;;;;;;;;;;;5099310;28;19955;-75
2022/10/13 07:11:54;;;;;;;;;;;;;;;;;;5092767;28;19951;-75
2022/10/13 07:14:20;;;;;;;;;;;;;;;;;;5092655;28;19971;-74
2022/10/13 07:16:46;;;;;;;;;;;;;;;;;;5099733;28;20646;-73
2022/10/13 07:19:12;;;;;;;;;;;;;;;;;;5096130;28;19963;-73
2022/10/13 07:21:39;;;;;;;;;;;;;;;;;;5094439;28;19960;-74
2022/10/13 07:24:05;;;;;;;;;;;;;;;;;;5102711;28;19947;-73
2022/10/13 07:26:32;;;;;;;;;;;;;;;;;;5094010;28;20679;-72
2022/10/13 07:28:59;;;;;;;;;;;;;;;;;;5092079;28;21699;-72
2022/10/13 07:31:25;;;;;;;;;;;;;;;;;;5097066;28;19951;-72
2022/10/13 07:33:51;;;;;;;;;;;;;;;;;;5093971;27;19959;-72
2022/10/13 07:36:17;;;;;;;;;;;;;;;;;;5074213;28;19951;-73
2022/10/13 07:38:47;;;;;;;;;;;;;;;;;;4994919;28;20652;-75
2022/10/13 07:41:53;;;;;;;;;;;;;;;;;;4769422;28;20616;-74
2022/10/13 07:44:47;;;;;;;;;;;;;;;;;;4761031;28;19931;-73
2022/10/13 07:50:12;;;;;;;;;;;;;;;;;;5026399;28;19920;-73
2022/10/13 07:52:38;;;;;;;;;;;;;;;;;;5084143;28;19981;-73
2022/10/13 07:55:04;;;;;;;;;;;;;;;;;;5082173;28;19947;-73
2022/10/13 07:57:30;;;;;;;;;;;;;;;;;;5046887;28;19928;-73
2022/10/13 07:59:56;;;;;;;;;;;;;;;;;;5041149;28;19959;-73
2022/10/13 08:02:23;;;;;;;;;;;;;;;;;;5058683;28;20465;-73
2022/10/13 08:04:49;;;;;;;;;;;;;;;;;;5049439;28;19952;-73
2022/10/13 08:07:16;;;;;;;;;;;;;;;;;;5060296;28;20084;-74
2022/10/13 08:09:42;;;;;;;;;;;;;;;;;;5064407;28;19956;-74
2022/10/13 08:12:08;;;;;;;;;;;;;;;;;;5066163;28;19947;-73
2022/10/13 08:14:35;;;;;;;;;;;;;;;;;;5064121;28;19974;-74
2022/10/13 08:17:01;;;;;;;;;;;;;;;;;;5060843;28;19955;-73
2022/10/13 08:19:27;;;;;;;;;;;;;;;;;;5060220;28;19955;-73
2022/10/13 08:21:53;;;;;;;;;;;;;;;;;;5059595;28;22611;-73
2022/10/13 08:24:21;;;;;;;;;;;;;;;;;;5063891;28;19917;-73
2022/10/13 08:26:47;;;;;;;;;;;;;;;;;;5063431;28;20399;-73
2022/10/13 08:29:13;;;;;;;;;;;;;;;;;;5062947;28;19964;-73
2022/10/13 08:31:40;;;;;;;;;;;;;;;;;;5060591;28;19959;-73
2022/10/13 08:34:09;;;;;;;;;;;;;;;;;;5064303;28;19917;-73
2022/10/13 08:36:35;;;;;;;;;;;;;;;;;;5068042;28;19970;-74
2022/10/13 08:39:01;;;;;;;;;;;;;;;;;;5060930;28;19994;-73
2022/10/13 08:41:27;;;;;;;;;;;;;;;;;;5060142;28;19970;-73
2022/10/13 08:43:54;;;;;;;;;;;;;;;;;;5050422;28;20003;-73
2022/10/13 08:46:20;;;;;;;;;;;;;;;;;;5064246;28;19955;-73
2022/10/13 08:48:46;;;;;;;;;;;;;;;;;;5060803;28;19968;-73
2022/10/13 08:51:12;;;;;;;;;;;;;;;;;;5050955;28;19956;-73
2022/10/13 08:53:39;;;;;;;;;;;;;;;;;;5056420;28;20641;-74
2022/10/13 08:56:05;;;;;;;;;;;;;;;;;;5044864;28;19956;-74
2022/10/13 08:58:31;;;;;;;;;;;;;;;;;;5080940;28;20029;-73
2022/10/13 09:00:57;;;;;;;;;;;;;;;;;;5087202;28;19967;-73
2022/10/13 09:03:23;;;;;;;;;;;;;;;;;;5071689;28;19944;-73
2022/10/13 09:05:50;;;;;;;;;;;;;;;;;;5084845;28;19955;-73
2022/10/13 09:08:25;;;;;;;;;;;;;;;;;;4853877;28;20429;-74
2022/10/13 09:11:09;;;;;;;;;;;;;;;;;;4696919;28;21029;-74
2022/10/13 09:13:35;;;;;;;;;;;;;;;;;;4897204;28;19917;-74
2022/10/13 09:16:02;;;;;;;;;;;;;;;;;;5088261;28;19955;-74
2022/10/13 09:18:29;;;;;;;;;;;;;;;;;;5070583;28;19963;-73
2022/10/13 09:20:55;;;;;;;;;;;;;;;;;;5088404;28;19960;-73
2022/10/13 09:23:21;;;;;;;;;;;;;;;;;;5087687;28;19916;-73
2022/10/13 09:25:48;;;;;;;;;;;;;;;;;;5085332;28;20018;-74
2022/10/13 09:28:14;;;;;;;;;;;;;;;;;;5076147;28;20380;-74
2022/10/13 09:30:40;;;;;;;;;;;;;;;;;;5087100;28;19962;-74
2022/10/13 09:33:07;;;;;;;;;;;;;;;;;;5088287;28;20390;-74
2022/10/13 09:35:33;;;;;;;;;;;;;;;;;;5086133;28;19985;-74
2022/10/13 09:38:00;;;;;;;;;;;;;;;;;;5086911;28;21385;-74
2022/10/13 09:40:30;;;;;;;;;;;;;;;;;;5079118;28;19967;-73
2022/10/13 09:42:57;;;;;;;;;;;;;;;;;;5083656;28;19974;-73
2022/10/13 09:45:23;;;;;;;;;;;;;;;;;;5087639;28;19971;-73
2022/10/13 09:47:49;;;;;;;;;;;;;;;;;;5087474;28;19971;-73
2022/10/13 09:50:15;;;;;;;;;;;;;;;;;;5065795;28;19963;-73
2022/10/13 09:52:42;;;;;;;;;;;;;;;;;;5087451;28;19938;-72
2022/10/13 09:55:08;;;;;;;;;;;;;;;;;;5087150;28;19966;-72
2022/10/13 09:57:34;;;;;;;;;;;;;;;;;;5087502;28;19974;-73
2022/10/13 10:00:01;;;;;;;;;;;;;;;;;;5083103;28;22434;-73
2022/10/13 10:02:28;;;;;;;;;;;;;;;;;;5084783;28;19959;-72
2022/10/13 10:04:54;;;;;;;;;;;;;;;;;;5064069;28;19962;-73
2022/10/13 10:07:20;;;;;;;;;;;;;;;;;;5088583;28;19960;-73
2022/10/13 10:09:46;;;;;;;;;;;;;;;;;;5085587;28;19962;-74
2022/10/13 10:12:12;;;;;;;;;;;;;;;;;;5084548;28;19964;-72
2022/10/13 10:14:39;;;;;;;;;;;;;;;;;;5086862;28;19970;-73
2022/10/13 10:17:05;;;;;;;;;;;;;;;;;;5086379;28;19923;-73
2022/10/13 10:19:31;;;;;;;;;;;;;;;;;;5087446;28;19952;-73
2022/10/13 10:22:02;;;;;;;;;;;;;;;;;;5068135;28;20382;-73
2022/10/13 10:24:28;;;;;;;;;;;;;;;;;;5080987;28;19952;-72
2022/10/13 10:26:55;;;;;;;;;;;;;;;;;;5081527;28;19967;-73
2022/10/13 10:29:23;;;;;;;;;;;;;;;;;;5079648;28;19995;-73
2022/10/13 10:31:50;;;;;;;;;;;;;;;;;;5084818;28;19913;-73
2022/10/13 10:34:16;;;;;;;;;;;;;;;;;;5088356;28;19951;-72
2022/10/13 10:36:42;;;;;;;;;;;;;;;;;;5082167;28;19956;-72
2022/10/13 10:39:08;;;;;;;;;;;;;;;;;;5087860;28;19966;-72
2022/10/13 10:41:35;;;;;;;;;;;;;;;;;;5068873;28;19966;-72
2022/10/13 10:44:01;;;;;;;;;;;;;;;;;;5080159;28;20610;-73
2022/10/13 10:46:27;;;;;;;;;;;;;;;;;;5074865;28;19963;-73
2022/10/13 10:48:53;;;;;;;;;;;;;;;;;;5084028;28;19952;-72
2022/10/13 10:51:20;;;;;;;;;;;;;;;;;;5084747;28;20007;-72
2022/10/13 10:53:46;;;;;;;;;;;;;;;;;;5085151;28;19970;-71
2022/10/13 10:56:12;;;;;;;;;;;;;;;;;;5086102;28;19956;-72
2022/10/13 10:58:38;;;;;;;;;;;;;;;;;;5078130;28;20422;-72
2022/10/13 11:01:04;;;;;;;;;;;;;;;;;;5083607;28;19990;-72
2022/10/13 11:03:30;;;;;;;;;;;;;;;;;;5084435;28;19963;-73
2022/10/13 11:05:57;;;;;;;;;;;;;;;;;;5068190;28;20306;-72
2022/10/13 11:08:23;;;;;;;;;;;;;;;;;;5086153;28;19924;-72
2022/10/13 11:10:49;;;;;;;;;;;;;;;;;;5067602;28;19966;-71
2022/10/13 11:13:15;;;;;;;;;;;;;;;;;;5087418;28;19947;-71
2022/10/13 11:15:42;;;;;;;;;;;;;;;;;;5085819;28;19963;-73
2022/10/13 11:18:08;;;;;;;;;;;;;;;;;;5086194;28;19952;-72
2022/10/13 11:20:34;;;;;;;;;;;;;;;;;;5082901;28;19959;-72
2022/10/13 11:23:00;;;;;;;;;;;;;;;;;;5085578;28;20343;-72
2022/10/13 11:25:26;;;;;;;;;;;;;;;;;;5084747;28;19960;-72
2022/10/13 11:27:53;;;;;;;;;;;;;;;;;;5081708;28;19979;-73
2022/10/13 11:30:19;;;;;;;;;;;;;;;;;;5082639;28;19920;-72
2022/10/13 11:32:54;;;;;;;;;;;;;;;;;;5064979;28;19970;-72
2022/10/13 11:35:21;;;;;;;;;;;;;;;;;;5081627;28;19979;-72
2022/10/13 11:37:47;;;;;;;;;;;;;;;;;;5080845;28;19952;-73
2022/10/13 11:40:13;;;;;;;;;;;;;;;;;;5083077;28;19978;-72
2022/10/13 11:42:39;;;;;;;;;;;;;;;;;;5063797;28;19951;-72
2022/10/13 11:45:05;;;;;;;;;;;;;;;;;;5064933;28;19966;-71
2022/10/13 11:47:31;;;;;;;;;;;;;;;;;;5082181;28;19966;-72
2022/10/13 11:49:58;;;;;;;;;;;;;;;;;;5062950;28;19986;-74
2022/10/13 11:52:24;;;;;;;;;;;;;;;;;;5083510;28;19971;-74
2022/10/13 11:54:50;;;;;;;;;;;;;;;;;;5078436;28;19962;-74
2022/10/13 11:57:16;;;;;;;;;;;;;;;;;;5083192;28;19996;-75
2022/10/13 11:59:42;;;;;;;;;;;;;;;;;;5083192;28;20402;-75
2022/10/13 12:02:09;;;;;;;;;;;;;;;;;;5068684;28;19982;-75
2022/10/13 12:04:35;;;;;;;;;;;;;;;;;;5077412;28;20491;-75
2022/10/13 12:07:01;;;;;;;;;;;;;;;;;;5078864;28;19920;-75
2022/10/13 12:09:27;;;;;;;;;;;;;;;;;;5081394;28;19959;-75
2022/10/13 12:11:53;;;;;;;;;;;;;;;;;;5083551;28;19959;-74
2022/10/13 12:14:20;;;;;;;;;;;;;;;;;;5066905;28;19985;-75
2022/10/13 12:16:46;;;;;;;;;;;;;;;;;;5081200;28;20516;-75
2022/10/13 12:19:15;;;;;;;;;;;;;;;;;;5084448;28;19920;-75
2022/10/13 12:21:41;;;;;;;;;;;;;;;;;;5082380;28;19959;-74
2022/10/13 12:24:07;;;;;;;;;;;;;;;;;;5083718;28;19970;-75
2022/10/13 12:26:33;;;;;;;;;;;;;;;;;;5062124;28;19956;-75
2022/10/13 12:28:59;;;;;;;;;;;;;;;;;;5084384;28;19986;-75
2022/10/13 12:31:26;;;;;;;;;;;;;;;;;;5085192;28;20402;-75
2022/10/13 12:33:52;;;;;;;;;;;;;;;;;;5077881;28;19975;-74
2022/10/13 12:36:18;;;;;;;;;;;;;;;;;;5084918;28;20352;-76
2022/10/13 12:38:45;;;;;;;;;;;;;;;;;;5065071;28;19916;-76
2022/10/13 12:41:11;;;;;;;;;;;;;;;;;;5075565;28;20426;-76
2022/10/13 12:43:37;;;;;;;;;;;;;;;;;;5078672;28;19979;-77
2022/10/13 12:46:03;;;;;;;;;;;;;;;;;;5078512;28;20435;-76
2022/10/13 12:48:30;;;;;;;;;;;;;;;;;;5084307;28;19959;-76
2022/10/13 12:50:56;;;;;;;;;;;;;;;;;;5081679;28;19960;-76
2022/10/13 12:53:22;;;;;;;;;;;;;;;;;;5078763;28;19954;-76
2022/10/13 12:55:48;;;;;;;;;;;;;;;;;;5074919;28;20003;-80
2022/10/13 12:58:15;;;;;;;;;;;;;;;;;;5081881;28;19955;-76
2022/10/13 13:00:41;;;;;;;;;;;;;;;;;;5075837;28;19956;-76
2022/10/13 13:03:07;;;;;;;;;;;;;;;;;;5080279;28;19959;-79
2022/10/13 13:05:33;;;;;;;;;;;;;;;;;;5083932;28;20785;-75
2022/10/13 13:07:59;;;;;;;;;;;;;;;;;;5084430;28;19935;-76
2022/10/13 13:10:26;;;;;;;;;;;;;;;;;;5084787;28;20793;-75
2022/10/13 13:12:52;;;;;;;;;;;;;;;;;;5073648;28;20034;-75
2022/10/13 13:15:18;;;;;;;;;;;;;;;;;;5083147;28;19986;-75
2022/10/13 13:17:45;;;;;;;;;;;;;;;;;;5084947;28;19955;-74
2022/10/13 13:20:11;;;;;;;;;;;;;;;;;;5066069;28;20390;-74
2022/10/13 13:22:37;;;;;;;;;;;;;;;;;;5082970;28;19966;-77
2022/10/13 13:25:03;;;;;;;;;;;;;;;;;;5085528;28;19970;-75
2022/10/13 13:27:29;;;;;;;;;;;;;;;;;;5081110;28;19974;-75
2022/10/13 13:29:56;;;;;;;;;;;;;;;;;;5078965;28;19955;-75
2022/10/13 13:32:22;;;;;;;;;;;;;;;;;;5081517;28;19920;-75
2022/10/13 13:34:48;;;;;;;;;;;;;;;;;;5081978;28;19967;-75
2022/10/13 13:37:14;;;;;;;;;;;;;;;;;;5084454;28;20424;-75
2022/10/13 13:39:40;;;;;;;;;;;;;;;;;;5085644;28;19947;-76
2022/10/13 13:42:07;;;;;;;;;;;;;;;;;;5069001;28;19966;-75
2022/10/13 13:44:33;;;;;;;;;;;;;;;;;;5078967;28;19954;-75
2022/10/13 13:46:59;;;;;;;;;;;;;;;;;;5078217;28;19948;-75
2022/10/13 13:49:25;;;;;;;;;;;;;;;;;;5082650;28;20313;-75
2022/10/13 13:51:51;;;;;;;;;;;;;;;;;;5075217;28;20050;-75
2022/10/13 13:54:17;;;;;;;;;;;;;;;;;;5087607;28;19956;-75
2022/10/13 13:56:44;;;;;;;;;;;;;;;;;;5078924;28;19987;-76
2022/10/13 13:59:12;;;;;;;;;;;;;;;;;;5086042;28;20135;-73
2022/10/13 14:01:38;;;;;;;;;;;;;;;;;;5059691;28;20005;-76
2022/10/13 14:04:04;;;;;;;;;;;;;;;;;;5086862;28;20317;-75
2022/10/13 14:06:31;;;;;;;;;;;;;;;;;;5087275;28;19948;-74
2022/10/13 14:08:57;;;;;;;;;;;;;;;;;;5085751;28;19974;-74
2022/10/13 14:11:23;;;;;;;;;;;;;;;;;;5074559;28;19963;-75
2022/10/13 14:13:49;;;;;;;;;;;;;;;;;;5085102;28;19966;-75
2022/10/13 14:16:16;;;;;;;;;;;;;;;;;;5083145;28;20060;-73
2022/10/13 14:18:42;;;;;;;;;;;;;;;;;;5081378;28;19944;-74
2022/10/13 14:21:08;;;;;;;;;;;;;;;;;;5084633;28;19991;-75
2022/10/13 14:23:35;;;;;;;;;;;;;;;;;;5083646;28;19955;-76
2022/10/13 14:26:01;;;;;;;;;;;;;;;;;;5078668;28;20370;-76
2022/10/13 14:28:27;;;;;;;;;;;;;;;;;;5084803;28;19952;-77
2022/10/13 14:30:53;;;;;;;;;;;;;;;;;;5084829;28;20007;-76
2022/10/13 14:33:20;;;;;;;;;;;;;;;;;;5084277;28;19955;-76
2022/10/13 14:35:46;;;;;;;;;;;;;;;;;;5082764;28;19947;-75
2022/10/13 14:38:13;;;;;;;;;;;;;;;;;;5063554;28;20709;-76
2022/10/13 14:40:39;;;;;;;;;;;;;;;;;;5082554;28;19955;-76
2022/10/13 14:43:05;;;;;;;;;;;;;;;;;;5082908;28;19978;-76
2022/10/13 14:45:32;;;;;;;;;;;;;;;;;;5078870;28;19952;-75
2022/10/13 14:47:58;;;;;;;;;;;;;;;;;;5083765;28;20015;-75
2022/10/13 14:50:24;;;;;;;;;;;;;;;;;;5081721;28;20546;-75
2022/10/13 14:52:50;;;;;;;;;;;;;;;;;;5084322;28;20005;-76
2022/10/13 14:55:16;;;;;;;;;;;;;;;;;;5065110;28;19960;-76
2022/10/13 14:57:43;;;;;;;;;;;;;;;;;;5083216;28;19951;-76
2022/10/13 15:00:09;;;;;;;;;;;;;;;;;;5082630;28;19967;-76
2022/10/13 15:02:35;;;;;;;;;;;;;;;;;;5066498;28;19912;-76
2022/10/13 15:05:02;;;;;;;;;;;;;;;;;;5083650;28;19951;-75
2022/10/13 15:07:28;;;;;;;;;;;;;;;;;;5084553;28;19952;-75
2022/10/13 15:09:54;;;;;;;;;;;;;;;;;;5081977;28;19932;-77
2022/10/13 15:12:20;;;;;;;;;;;;;;;;;;5073799;28;19952;-75
2022/10/13 15:14:47;;;;;;;;;;;;;;;;;;5083420;28;19973;-75
2022/10/13 15:17:13;;;;;;;;;;;;;;;;;;5083257;28;19952;-75
2022/10/13 15:19:39;;;;;;;;;;;;;;;;;;5080641;28;19970;-76
2022/10/13 15:22:05;;;;;;;;;;;;;;;;;;5080868;28;19959;-75
2022/10/13 15:24:31;;;;;;;;;;;;;;;;;;5082168;28;20378;-74
2022/10/13 15:26:57;;;;;;;;;;;;;;;;;;5084017;28;19963;-71
2022/10/13 15:29:24;;;;;;;;;;;;;;;;;;5077839;28;19971;-71
2022/10/13 15:31:50;;;;;;;;;;;;;;;;;;5077415;28;19939;-74
2022/10/13 15:34:16;;;;;;;;;;;;;;;;;;5085837;28;19947;-73
2022/10/13 15:36:42;;;;;;;;;;;;;;;;;;5082322;28;19943;-70
2022/10/13 15:39:08;;;;;;;;;;;;;;;;;;5083684;28;19971;-71
2022/10/13 15:41:34;;;;;;;;;;;;;;;;;;5083582;28;20336;-71
2022/10/13 15:44:01;;;;;;;;;;;;;;;;;;5064783;28;19947;-72
2022/10/13 15:46:28;;;;;;;;;;;;;;;;;;5083983;28;19950;-73
2022/10/13 15:48:55;;;;;;;;;;;;;;;;;;5080780;28;19967;-73
2022/10/13 15:51:22;;;;;;;;;;;;;;;;;;5086098;28;20378;-73
2022/10/13 15:53:49;;;;;;;;;;;;;;;;;;5082840;28;19924;-72
2022/10/13 15:56:15;;;;;;;;;;;;;;;;;;5083631;28;19955;-72
2022/10/13 15:58:41;;;;;;;;;;;;;;;;;;5077775;28;19984;-72
2022/10/13 16:01:07;;;;;;;;;;;;;;;;;;5076933;28;19959;-72
2022/10/13 16:03:33;;;;;;;;;;;;;;;;;;5081848;28;20025;-71
2022/10/13 16:06:00;;;;;;;;;;;;;;;;;;5079175;28;19997;-73
2022/10/13 16:08:26;;;;;;;;;;;;;;;;;;5075002;28;20398;-72
2022/10/13 16:10:52;;;;;;;;;;;;;;;;;;5065071;28;19972;-73
2022/10/13 16:13:18;;;;;;;;;;;;;;;;;;5077583;28;20430;-72
2022/10/13 16:15:44;;;;;;;;;;;;;;;;;;5080224;28;19944;-73
2022/10/13 16:18:11;;;;;;;;;;;;;;;;;;5079059;28;19964;-72
2022/10/13 16:20:39;;;;;;;;;;;;;;;;;;5082928;28;19959;-72
2022/10/13 16:23:05;;;;;;;;;;;;;;;;;;5081202;28;21406;-72
2022/10/13 16:25:31;;;;;;;;;;;;;;;;;;5082306;28;19948;-72
2022/10/13 16:27:58;;;;;;;;;;;;;;;;;;5077489;28;19959;-72
2022/10/13 16:30:24;;;;;;;;;;;;;;;;;;5078391;28;19990;-72
2022/10/13 16:32:51;;;;;;;;;;;;;;;;;;5080507;28;19948;-71
2022/10/13 16:35:17;;;;;;;;;;;;;;;;;;5081543;28;20354;-72
2022/10/13 16:37:43;;;;;;;;;;;;;;;;;;5080404;28;19920;-72
2022/10/13 16:40:09;;;;;;;;;;;;;;;;;;5066535;28;20294;-72
2022/10/13 16:42:36;;;;;;;;;;;;;;;;;;5085468;28;19966;-72